Terminal Aerodrome Forecast
Issued by NWS Jackson, KY

Home | Current Version | Previous Version | Text Only | Print | Product List | Glossary On
Versions: 1 2 3 4 5 6 7 8 9 10 11 12
596
FTUS43 KJKL 110520
TAFLOZ
TAF
KLOZ 110520Z 1106/1206 00000KT P6SM SCT200
     FM111600 19012G17KT P6SM SCT200
     FM112300 18009G16KT P6SM BKN045 WS020/19040KT
     FM120400 21008KT 5SM -RA OVC015=

USA.gov is the U.S. government's official web portal to all federal, state and local government web resources and services.